sensor_id;sensor_type;location;lat;lon;timestamp;P1;durP1;ratioP1;P2;durP2;ratioP2
33403;SDS011;19751;40.274;18.268;2023-03-23T00:01:16;33.08;;;21.98;;
33403;SDS011;19751;40.274;18.268;2023-03-23T00:03:44;33.88;;;21.23;;
33403;SDS011;19751;40.274;18.268;2023-03-23T00:06:12;29.33;;;21.38;;
33403;SDS011;19751;40.274;18.268;2023-03-23T00:08:42;30.67;;;21.40;;
33403;SDS011;19751;40.274;18.268;2023-03-23T00:13:40;27.50;;;20.17;;
33403;SDS011;19751;40.274;18.268;2023-03-23T00:16:10;24.25;;;17.80;;
33403;SDS011;19751;40.274;18.268;2023-03-23T00:18:46;25.27;;;19.05;;
33403;SDS011;19751;40.274;18.268;2023-03-23T00:21:14;22.90;;;17.10;;
33403;SDS011;19751;40.274;18.268;2023-03-23T00:23:40;24.10;;;17.00;;
33403;SDS011;19751;40.274;18.268;2023-03-23T00:26:09;22.40;;;16.52;;
33403;SDS011;19751;40.274;18.268;2023-03-23T00:28:36;31.58;;;18.58;;
33403;SDS011;19751;40.274;18.268;2023-03-23T00:31:05;22.05;;;16.73;;
33403;SDS011;19751;40.274;18.268;2023-03-23T00:33:33;25.33;;;18.48;;
33403;SDS011;19751;40.274;18.268;2023-03-23T00:36:05;22.85;;;17.10;;
33403;SDS011;19751;40.274;18.268;2023-03-23T00:38:33;28.48;;;17.42;;
33403;SDS011;19751;40.274;18.268;2023-03-23T00:41:00;26.40;;;17.77;;
33403;SDS011;19751;40.274;18.268;2023-03-23T00:43:27;27.27;;;17.27;;
33403;SDS011;19751;40.274;18.268;2023-03-23T00:45:54;21.23;;;16.52;;
33403;SDS011;19751;40.274;18.268;2023-03-23T00:48:21;23.85;;;17.73;;
33403;SDS011;19751;40.274;18.268;2023-03-23T00:50:50;24.95;;;16.85;;
33403;SDS011;19751;40.274;18.268;2023-03-23T00:53:17;23.08;;;16.48;;
33403;SDS011;19751;40.274;18.268;2023-03-23T00:55:43;25.65;;;18.42;;
33403;SDS011;19751;40.274;18.268;2023-03-23T00:58:10;24.95;;;18.88;;
33403;SDS011;19751;40.274;18.268;2023-03-23T01:00:37;22.52;;;15.82;;
33403;SDS011;19751;40.274;18.268;2023-03-23T01:03:03;23.25;;;17.15;;
33403;SDS011;19751;40.274;18.268;2023-03-23T01:05:29;22.92;;;17.40;;
33403;SDS011;19751;40.274;18.268;2023-03-23T01:07:58;25.08;;;17.67;;
33403;SDS011;19751;40.274;18.268;2023-03-23T01:10:24;27.48;;;18.00;;
33403;SDS011;19751;40.274;18.268;2023-03-23T01:12:51;26.60;;;17.67;;
33403;SDS011;19751;40.274;18.268;2023-03-23T01:15:18;27.00;;;19.02;;
33403;SDS011;19751;40.274;18.268;2023-03-23T01:17:44;25.50;;;18.33;;
33403;SDS011;19751;40.274;18.268;2023-03-23T01:20:10;23.08;;;17.90;;
33403;SDS011;19751;40.274;18.268;2023-03-23T01:22:38;26.92;;;19.08;;
33403;SDS011;19751;40.274;18.268;2023-03-23T01:25:05;26.10;;;19.23;;
33403;SDS011;19751;40.274;18.268;2023-03-23T01:27:31;24.35;;;17.48;;
33403;SDS011;19751;40.274;18.268;2023-03-23T01:29:56;28.23;;;18.77;;
33403;SDS011;19751;40.274;18.268;2023-03-23T01:32:22;26.08;;;19.83;;
33403;SDS011;19751;40.274;18.268;2023-03-23T01:34:47;29.50;;;19.42;;
33403;SDS011;19751;40.274;18.268;2023-03-23T01:37:13;31.33;;;21.60;;
33403;SDS011;19751;40.274;18.268;2023-03-23T01:39:40;32.78;;;23.05;;
33403;SDS011;19751;40.274;18.268;2023-03-23T01:42:07;25.75;;;19.98;;
33403;SDS011;19751;40.274;18.268;2023-03-23T01:46:59;34.10;;;20.95;;
33403;SDS011;19751;40.274;18.268;2023-03-23T01:49:29;32.60;;;23.23;;
33403;SDS011;19751;40.274;18.268;2023-03-23T01:52:02;30.50;;;21.80;;
33403;SDS011;19751;40.274;18.268;2023-03-23T01:54:33;29.75;;;20.95;;
33403;SDS011;19751;40.274;18.268;2023-03-23T01:57:04;30.58;;;20.23;;
33403;SDS011;19751;40.274;18.268;2023-03-23T01:59:34;27.67;;;20.65;;
33403;SDS011;19751;40.274;18.268;2023-03-23T02:02:01;30.83;;;21.63;;
33403;SDS011;19751;40.274;18.268;2023-03-23T02:04:27;32.53;;;20.67;;
33403;SDS011;19751;40.274;18.268;2023-03-23T02:06:54;27.58;;;21.50;;
33403;SDS011;19751;40.274;18.268;2023-03-23T02:09:22;28.55;;;19.33;;
33403;SDS011;19751;40.274;18.268;2023-03-23T02:11:51;30.27;;;19.77;;
33403;SDS011;19751;40.274;18.268;2023-03-23T02:14:18;26.95;;;20.23;;
33403;SDS011;19751;40.274;18.268;2023-03-23T02:33:35;31.90;;;22.17;;
33403;SDS011;19751;40.274;18.268;2023-03-23T02:38:54;29.15;;;19.67;;
33403;SDS011;19751;40.274;18.268;2023-03-23T02:41:21;34.65;;;22.50;;
33403;SDS011;19751;40.274;18.268;2023-03-23T02:43:50;31.10;;;19.20;;
33403;SDS011;19751;40.274;18.268;2023-03-23T02:46:17;34.05;;;22.58;;
33403;SDS011;19751;40.274;18.268;2023-03-23T02:48:45;26.20;;;19.45;;
33403;SDS011;19751;40.274;18.268;2023-03-23T02:51:13;28.60;;;20.23;;
33403;SDS011;19751;40.274;18.268;2023-03-23T02:53:41;30.17;;;20.92;;
33403;SDS011;19751;40.274;18.268;2023-03-23T02:56:08;27.73;;;20.35;;
33403;SDS011;19751;40.274;18.268;2023-03-23T02:58:36;26.05;;;19.08;;
33403;SDS011;19751;40.274;18.268;2023-03-23T03:03:59;26.88;;;19.13;;
33403;SDS011;19751;40.274;18.268;2023-03-23T03:06:44;31.65;;;19.35;;
33403;SDS011;19751;40.274;18.268;2023-03-23T03:09:16;24.27;;;18.10;;
33403;SDS011;19751;40.274;18.268;2023-03-23T03:11:50;30.17;;;18.33;;
33403;SDS011;19751;40.274;18.268;2023-03-23T03:14:26;27.73;;;19.95;;
33403;SDS011;19751;40.274;18.268;2023-03-23T03:17:00;24.40;;;17.58;;
33403;SDS011;19751;40.274;18.268;2023-03-23T03:19:33;22.23;;;18.20;;
33403;SDS011;19751;40.274;18.268;2023-03-23T03:22:01;26.63;;;18.13;;
33403;SDS011;19751;40.274;18.268;2023-03-23T03:24:29;25.65;;;18.15;;
33403;SDS011;19751;40.274;18.268;2023-03-23T03:26:56;23.08;;;17.63;;
33403;SDS011;19751;40.274;18.268;2023-03-23T03:29:28;23.67;;;16.85;;
33403;SDS011;19751;40.274;18.268;2023-03-23T03:31:57;20.77;;;16.58;;
33403;SDS011;19751;40.274;18.268;2023-03-23T03:34:24;24.88;;;19.00;;
33403;SDS011;19751;40.274;18.268;2023-03-23T03:36:51;23.88;;;16.98;;
33403;SDS011;19751;40.274;18.268;2023-03-23T03:39:20;23.90;;;17.00;;
33403;SDS011;19751;40.274;18.268;2023-03-23T03:41:47;23.33;;;16.60;;
33403;SDS011;19751;40.274;18.268;2023-03-23T03:44:13;23.08;;;17.02;;
33403;SDS011;19751;40.274;18.268;2023-03-23T03:46:40;26.13;;;17.67;;
33403;SDS011;19751;40.274;18.268;2023-03-23T03:49:06;26.73;;;16.65;;
33403;SDS011;19751;40.274;18.268;2023-03-23T03:51:34;21.27;;;15.85;;
33403;SDS011;19751;40.274;18.268;2023-03-23T03:54:00;21.88;;;16.15;;
33403;SDS011;19751;40.274;18.268;2023-03-23T03:56:26;21.80;;;15.80;;
33403;SDS011;19751;40.274;18.268;2023-03-23T03:58:51;22.73;;;16.05;;
33403;SDS011;19751;40.274;18.268;2023-03-23T04:01:19;22.52;;;16.08;;
33403;SDS011;19751;40.274;18.268;2023-03-23T04:03:49;20.60;;;14.20;;
33403;SDS011;19751;40.274;18.268;2023-03-23T04:06:16;22.70;;;16.92;;
33403;SDS011;19751;40.274;18.268;2023-03-23T04:08:41;21.35;;;17.13;;
33403;SDS011;19751;40.274;18.268;2023-03-23T04:11:08;25.13;;;16.50;;
33403;SDS011;19751;40.274;18.268;2023-03-23T04:13:35;23.60;;;16.25;;
33403;SDS011;19751;40.274;18.268;2023-03-23T04:16:01;41.45;;;18.60;;
33403;SDS011;19751;40.274;18.268;2023-03-23T04:18:27;24.45;;;17.00;;
33403;SDS011;19751;40.274;18.268;2023-03-23T04:20:53;21.20;;;16.25;;
33403;SDS011;19751;40.274;18.268;2023-03-23T04:23:25;23.30;;;17.13;;
33403;SDS011;19751;40.274;18.268;2023-03-23T04:25:52;26.80;;;16.85;;
33403;SDS011;19751;40.274;18.268;2023-03-23T04:28:22;23.95;;;16.35;;
33403;SDS011;19751;40.274;18.268;2023-03-23T04:30:52;21.85;;;16.30;;
33403;SDS011;19751;40.274;18.268;2023-03-23T04:33:23;29.42;;;16.50;;
33403;SDS011;19751;40.274;18.268;2023-03-23T04:35:55;24.83;;;16.55;;
33403;SDS011;19751;40.274;18.268;2023-03-23T04:38:26;24.25;;;16.88;;
33403;SDS011;19751;40.274;18.268;2023-03-23T04:40:52;25.30;;;15.90;;
33403;SDS011;19751;40.274;18.268;2023-03-23T04:43:20;22.80;;;16.33;;
33403;SDS011;19751;40.274;18.268;2023-03-23T04:45:57;19.60;;;14.27;;
33403;SDS011;19751;40.274;18.268;2023-03-23T04:48:24;21.15;;;14.85;;
33403;SDS011;19751;40.274;18.268;2023-03-23T04:50:51;23.25;;;16.83;;
33403;SDS011;19751;40.274;18.268;2023-03-23T04:53:17;22.20;;;16.13;;
33403;SDS011;19751;40.274;18.268;2023-03-23T04:55:43;19.40;;;15.95;;
33403;SDS011;19751;40.274;18.268;2023-03-23T04:58:10;20.02;;;15.07;;
33403;SDS011;19751;40.274;18.268;2023-03-23T05:00:37;22.23;;;15.82;;
33403;SDS011;19751;40.274;18.268;2023-03-23T05:03:03;20.85;;;15.20;;
33403;SDS011;19751;40.274;18.268;2023-03-23T05:05:29;21.23;;;16.05;;
33403;SDS011;19751;40.274;18.268;2023-03-23T05:07:55;24.15;;;14.30;;
33403;SDS011;19751;40.274;18.268;2023-03-23T05:10:21;18.90;;;14.75;;
33403;SDS011;19751;40.274;18.268;2023-03-23T05:12:47;20.20;;;14.13;;
33403;SDS011;19751;40.274;18.268;2023-03-23T05:15:13;21.02;;;15.48;;
33403;SDS011;19751;40.274;18.268;2023-03-23T05:17:40;18.13;;;13.23;;
33403;SDS011;19751;40.274;18.268;2023-03-23T05:20:10;20.55;;;14.50;;
33403;SDS011;19751;40.274;18.268;2023-03-23T05:22:37;19.17;;;15.25;;
33403;SDS011;19751;40.274;18.268;2023-03-23T05:25:03;19.33;;;12.82;;
33403;SDS011;19751;40.274;18.268;2023-03-23T05:27:30;16.98;;;12.07;;
33403;SDS011;19751;40.274;18.268;2023-03-23T05:29:57;21.45;;;13.93;;
33403;SDS011;19751;40.274;18.268;2023-03-23T05:32:24;18.23;;;13.98;;
33403;SDS011;19751;40.274;18.268;2023-03-23T05:34:59;16.38;;;12.98;;
33403;SDS011;19751;40.274;18.268;2023-03-23T05:37:26;15.00;;;12.00;;
33403;SDS011;19751;40.274;18.268;2023-03-23T05:39:59;15.00;;;11.82;;
33403;SDS011;19751;40.274;18.268;2023-03-23T05:42:30;17.80;;;12.60;;
33403;SDS011;19751;40.274;18.268;2023-03-23T05:44:57;18.60;;;12.27;;
33403;SDS011;19751;40.274;18.268;2023-03-23T05:47:23;19.15;;;12.50;;
33403;SDS011;19751;40.274;18.268;2023-03-23T05:49:50;21.80;;;14.50;;
33403;SDS011;19751;40.274;18.268;2023-03-23T05:52:16;16.55;;;11.80;;
33403;SDS011;19751;40.274;18.268;2023-03-23T05:54:42;17.23;;;13.20;;
33403;SDS011;19751;40.274;18.268;2023-03-23T05:57:08;16.23;;;12.93;;
33403;SDS011;19751;40.274;18.268;2023-03-23T05:59:34;20.23;;;13.95;;
33403;SDS011;19751;40.274;18.268;2023-03-23T06:02:00;18.60;;;13.63;;
33403;SDS011;19751;40.274;18.268;2023-03-23T06:04:26;18.90;;;13.35;;
33403;SDS011;19751;40.274;18.268;2023-03-23T06:06:52;20.98;;;12.70;;
33403;SDS011;19751;40.274;18.268;2023-03-23T06:09:18;17.73;;;12.13;;
33403;SDS011;19751;40.274;18.268;2023-03-23T06:11:44;18.40;;;12.30;;
33403;SDS011;19751;40.274;18.268;2023-03-23T06:14:10;15.80;;;12.60;;
33403;SDS011;19751;40.274;18.268;2023-03-23T06:16:35;14.38;;;10.52;;
33403;SDS011;19751;40.274;18.268;2023-03-23T06:19:01;15.65;;;11.02;;
33403;SDS011;19751;40.274;18.268;2023-03-23T06:21:28;12.60;;;9.90;;
33403;SDS011;19751;40.274;18.268;2023-03-23T06:23:58;16.30;;;10.43;;
33403;SDS011;19751;40.274;18.268;2023-03-23T06:26:35;17.27;;;11.13;;
33403;SDS011;19751;40.274;18.268;2023-03-23T06:31:36;11.65;;;9.32;;
33403;SDS011;19751;40.274;18.268;2023-03-23T06:34:04;12.45;;;9.05;;
33403;SDS011;19751;40.274;18.268;2023-03-23T06:36:29;12.27;;;9.45;;
33403;SDS011;19751;40.274;18.268;2023-03-23T06:38:56;21.80;;;10.68;;
33403;SDS011;19751;40.274;18.268;2023-03-23T06:41:22;16.58;;;12.18;;
33403;SDS011;19751;40.274;18.268;2023-03-23T06:43:48;14.20;;;9.57;;
33403;SDS011;19751;40.274;18.268;2023-03-23T06:46:13;16.67;;;11.85;;
33403;SDS011;19751;40.274;18.268;2023-03-23T06:48:39;12.80;;;10.40;;
33403;SDS011;19751;40.274;18.268;2023-03-23T06:51:05;14.98;;;11.10;;
33403;SDS011;19751;40.274;18.268;2023-03-23T06:53:31;13.80;;;8.93;;
33403;SDS011;19751;40.274;18.268;2023-03-23T06:55:57;8.90;;;7.80;;
33403;SDS011;19751;40.274;18.268;2023-03-23T06:58:22;12.75;;;8.10;;
33403;SDS011;19751;40.274;18.268;2023-03-23T07:00:52;11.90;;;10.05;;
33403;SDS011;19751;40.274;18.268;2023-03-23T07:03:22;14.48;;;10.32;;
33403;SDS011;19751;40.274;18.268;2023-03-23T07:05:48;11.18;;;8.68;;
33403;SDS011;19751;40.274;18.268;2023-03-23T07:08:15;12.68;;;8.98;;
33403;SDS011;19751;40.274;18.268;2023-03-23T07:10:40;10.38;;;8.10;;
33403;SDS011;19751;40.274;18.268;2023-03-23T07:13:06;10.60;;;9.00;;
33403;SDS011;19751;40.274;18.268;2023-03-23T07:15:31;11.48;;;9.55;;
33403;SDS011;19751;40.274;18.268;2023-03-23T07:17:57;11.50;;;8.82;;
33403;SDS011;19751;40.274;18.268;2023-03-23T07:20:23;14.60;;;9.75;;
33403;SDS011;19751;40.274;18.268;2023-03-23T07:22:48;11.57;;;7.68;;
33403;SDS011;19751;40.274;18.268;2023-03-23T07:25:15;14.35;;;8.82;;
33403;SDS011;19751;40.274;18.268;2023-03-23T07:27:41;12.63;;;8.23;;
33403;SDS011;19751;40.274;18.268;2023-03-23T07:30:09;15.10;;;9.93;;
33403;SDS011;19751;40.274;18.268;2023-03-23T07:32:35;9.65;;;7.93;;
33403;SDS011;19751;40.274;18.268;2023-03-23T07:35:00;14.88;;;8.93;;
33403;SDS011;19751;40.274;18.268;2023-03-23T07:37:26;13.40;;;9.00;;
33403;SDS011;19751;40.274;18.268;2023-03-23T07:39:53;11.70;;;7.75;;
33403;SDS011;19751;40.274;18.268;2023-03-23T07:42:19;11.73;;;8.20;;
33403;SDS011;19751;40.274;18.268;2023-03-23T07:44:52;14.27;;;8.05;;
33403;SDS011;19751;40.274;18.268;2023-03-23T07:47:17;9.97;;;6.83;;
33403;SDS011;19751;40.274;18.268;2023-03-23T07:49:43;11.85;;;7.60;;
33403;SDS011;19751;40.274;18.268;2023-03-23T07:52:09;10.80;;;7.65;;
33403;SDS011;19751;40.274;18.268;2023-03-23T07:54:36;12.07;;;7.90;;
33403;SDS011;19751;40.274;18.268;2023-03-23T07:57:01;10.13;;;6.70;;
33403;SDS011;19751;40.274;18.268;2023-03-23T07:59:28;9.50;;;7.30;;
33403;SDS011;19751;40.274;18.268;2023-03-23T08:01:53;12.02;;;6.53;;
33403;SDS011;19751;40.274;18.268;2023-03-23T08:04:19;9.05;;;6.53;;
33403;SDS011;19751;40.274;18.268;2023-03-23T08:06:44;9.30;;;6.60;;
33403;SDS011;19751;40.274;18.268;2023-03-23T08:09:10;8.63;;;6.75;;
33403;SDS011;19751;40.274;18.268;2023-03-23T08:11:35;8.27;;;5.90;;
33403;SDS011;19751;40.274;18.268;2023-03-23T08:14:02;11.25;;;7.00;;
33403;SDS011;19751;40.274;18.268;2023-03-23T08:16:27;9.98;;;7.07;;
33403;SDS011;19751;40.274;18.268;2023-03-23T08:18:53;14.02;;;7.80;;
33403;SDS011;19751;40.274;18.268;2023-03-23T08:21:19;8.30;;;5.43;;
33403;SDS011;19751;40.274;18.268;2023-03-23T08:23:45;8.20;;;6.25;;
33403;SDS011;19751;40.274;18.268;2023-03-23T08:26:11;8.25;;;6.65;;
33403;SDS011;19751;40.274;18.268;2023-03-23T08:28:37;11.15;;;8.00;;
33403;SDS011;19751;40.274;18.268;2023-03-23T08:31:07;9.68;;;6.93;;
33403;SDS011;19751;40.274;18.268;2023-03-23T08:33:37;9.23;;;5.70;;
33403;SDS011;19751;40.274;18.268;2023-03-23T08:36:03;9.95;;;6.13;;
33403;SDS011;19751;40.274;18.268;2023-03-23T08:38:29;7.97;;;5.70;;
33403;SDS011;19751;40.274;18.268;2023-03-23T08:40:59;6.38;;;4.47;;
33403;SDS011;19751;40.274;18.268;2023-03-23T08:43:29;11.00;;;7.20;;
33403;SDS011;19751;40.274;18.268;2023-03-23T08:45:57;10.35;;;7.55;;
33403;SDS011;19751;40.274;18.268;2023-03-23T08:48:22;8.13;;;6.60;;
33403;SDS011;19751;40.274;18.268;2023-03-23T08:50:48;8.43;;;6.18;;
33403;SDS011;19751;40.274;18.268;2023-03-23T08:53:15;9.05;;;6.05;;
33403;SDS011;19751;40.274;18.268;2023-03-23T08:55:40;9.57;;;6.20;;
33403;SDS011;19751;40.274;18.268;2023-03-23T08:58:06;6.72;;;5.50;;
33403;SDS011;19751;40.274;18.268;2023-03-23T09:00:32;10.90;;;6.30;;
33403;SDS011;19751;40.274;18.268;2023-03-23T09:02:58;6.70;;;5.68;;
33403;SDS011;19751;40.274;18.268;2023-03-23T09:05:25;11.70;;;6.13;;
33403;SDS011;19751;40.274;18.268;2023-03-23T09:07:53;7.88;;;5.40;;
33403;SDS011;19751;40.274;18.268;2023-03-23T09:10:21;7.05;;;4.93;;
33403;SDS011;19751;40.274;18.268;2023-03-23T09:12:49;7.18;;;4.78;;
33403;SDS011;19751;40.274;18.268;2023-03-23T09:15:17;7.97;;;5.68;;
33403;SDS011;19751;40.274;18.268;2023-03-23T09:17:46;10.93;;;5.55;;
33403;SDS011;19751;40.274;18.268;2023-03-23T09:20:14;8.15;;;6.03;;
33403;SDS011;19751;40.274;18.268;2023-03-23T09:22:42;7.65;;;5.55;;
33403;SDS011;19751;40.274;18.268;2023-03-23T09:25:11;6.60;;;4.72;;
33403;SDS011;19751;40.274;18.268;2023-03-23T09:27:39;8.40;;;5.40;;
33403;SDS011;19751;40.274;18.268;2023-03-23T09:30:06;5.20;;;4.53;;
33403;SDS011;19751;40.274;18.268;2023-03-23T09:32:35;7.00;;;3.90;;
33403;SDS011;19751;40.274;18.268;2023-03-23T09:35:02;7.22;;;5.32;;
33403;SDS011;19751;40.274;18.268;2023-03-23T09:37:31;6.82;;;4.88;;
33403;SDS011;19751;40.274;18.268;2023-03-23T09:39:57;11.60;;;5.10;;
33403;SDS011;19751;40.274;18.268;2023-03-23T09:45:30;7.57;;;5.60;;
33403;SDS011;19751;40.274;18.268;2023-03-23T09:56:31;6.65;;;4.30;;
33403;SDS011;19751;40.274;18.268;2023-03-23T10:02:34;10.15;;;4.68;;
33403;SDS011;19751;40.274;18.268;2023-03-23T10:05:00;5.10;;;4.05;;
33403;SDS011;19751;40.274;18.268;2023-03-23T10:07:48;8.57;;;4.38;;
33403;SDS011;19751;40.274;18.268;2023-03-23T10:10:14;7.15;;;5.60;;
33403;SDS011;19751;40.274;18.268;2023-03-23T10:12:46;9.45;;;4.22;;
33403;SDS011;19751;40.274;18.268;2023-03-23T10:15:36;7.32;;;4.32;;
33403;SDS011;19751;40.274;18.268;2023-03-23T10:20:51;8.48;;;3.70;;
33403;SDS011;19751;40.274;18.268;2023-03-23T10:29:20;6.88;;;4.40;;
33403;SDS011;19751;40.274;18.268;2023-03-23T10:31:58;5.43;;;4.50;;
33403;SDS011;19751;40.274;18.268;2023-03-23T10:39:53;6.50;;;4.00;;
33403;SDS011;19751;40.274;18.268;2023-03-23T10:42:24;4.90;;;3.65;;
33403;SDS011;19751;40.274;18.268;2023-03-23T10:44:52;10.13;;;4.78;;
33403;SDS011;19751;40.274;18.268;2023-03-23T10:47:20;8.27;;;4.57;;
33403;SDS011;19751;40.274;18.268;2023-03-23T10:49:58;5.82;;;3.92;;
33403;SDS011;19751;40.274;18.268;2023-03-23T10:52:34;5.05;;;4.55;;
33403;SDS011;19751;40.274;18.268;2023-03-23T10:58:04;7.05;;;5.20;;
33403;SDS011;19751;40.274;18.268;2023-03-23T11:00:32;6.22;;;4.90;;
33403;SDS011;19751;40.274;18.268;2023-03-23T11:03:07;5.25;;;3.90;;
33403;SDS011;19751;40.274;18.268;2023-03-23T11:05:58;10.90;;;4.78;;
33403;SDS011;19751;40.274;18.268;2023-03-23T11:08:29;5.38;;;4.07;;
33403;SDS011;19751;40.274;18.268;2023-03-23T11:12:01;7.07;;;4.30;;
33403;SDS011;19751;40.274;18.268;2023-03-23T11:14:19;6.70;;;4.85;;
33403;SDS011;19751;40.274;18.268;2023-03-23T11:16:51;6.03;;;4.85;;
33403;SDS011;19751;40.274;18.268;2023-03-23T11:19:22;6.05;;;5.28;;
33403;SDS011;19751;40.274;18.268;2023-03-23T11:21:51;6.88;;;4.70;;
33403;SDS011;19751;40.274;18.268;2023-03-23T11:24:21;8.50;;;5.32;;
33403;SDS011;19751;40.274;18.268;2023-03-23T11:26:48;8.07;;;4.70;;
33403;SDS011;19751;40.274;18.268;2023-03-23T11:29:23;7.50;;;4.90;;
33403;SDS011;19751;40.274;18.268;2023-03-23T11:32:02;6.82;;;5.78;;
33403;SDS011;19751;40.274;18.268;2023-03-23T11:34:46;6.00;;;3.40;;
33403;SDS011;19751;40.274;18.268;2023-03-23T11:37:35;5.90;;;3.90;;
33403;SDS011;19751;40.274;18.268;2023-03-23T11:42:38;3.75;;;3.45;;
33403;SDS011;19751;40.274;18.268;2023-03-23T11:47:41;3.95;;;3.55;;
33403;SDS011;19751;40.274;18.268;2023-03-23T11:50:18;7.22;;;3.65;;
33403;SDS011;19751;40.274;18.268;2023-03-23T11:55:53;3.35;;;2.67;;
33403;SDS011;19751;40.274;18.268;2023-03-23T11:58:26;4.03;;;3.33;;
33403;SDS011;19751;40.274;18.268;2023-03-23T12:00:59;7.40;;;3.55;;
33403;SDS011;19751;40.274;18.268;2023-03-23T12:06:09;5.65;;;3.90;;
33403;SDS011;19751;40.274;18.268;2023-03-23T12:19:51;3.85;;;2.90;;
33403;SDS011;19751;40.274;18.268;2023-03-23T12:22:22;4.25;;;3.05;;
33403;SDS011;19751;40.274;18.268;2023-03-23T12:25:17;3.22;;;2.65;;
33403;SDS011;19751;40.274;18.268;2023-03-23T12:27:51;2.85;;;2.63;;
33403;SDS011;19751;40.274;18.268;2023-03-23T12:30:35;4.10;;;2.55;;
33403;SDS011;19751;40.274;18.268;2023-03-23T12:46:20;3.05;;;2.47;;
33403;SDS011;19751;40.274;18.268;2023-03-23T12:51:32;3.28;;;2.45;;
33403;SDS011;19751;40.274;18.268;2023-03-23T12:57:36;2.93;;;2.17;;
33403;SDS011;19751;40.274;18.268;2023-03-23T13:05:52;5.57;;;2.25;;
33403;SDS011;19751;40.274;18.268;2023-03-23T13:08:39;2.65;;;2.22;;
33403;SDS011;19751;40.274;18.268;2023-03-23T13:11:13;3.35;;;1.90;;
33403;SDS011;19751;40.274;18.268;2023-03-23T13:13:47;4.20;;;2.08;;
33403;SDS011;19751;40.274;18.268;2023-03-23T13:22:07;2.83;;;2.20;;
33403;SDS011;19751;40.274;18.268;2023-03-23T13:24:41;3.47;;;2.25;;
33403;SDS011;19751;40.274;18.268;2023-03-23T13:27:15;4.32;;;2.97;;
33403;SDS011;19751;40.274;18.268;2023-03-23T13:29:45;3.60;;;2.60;;
33403;SDS011;19751;40.274;18.268;2023-03-23T13:32:12;3.95;;;3.08;;
33403;SDS011;19751;40.274;18.268;2023-03-23T13:34:42;3.90;;;2.72;;
33403;SDS011;19751;40.274;18.268;2023-03-23T13:37:26;2.40;;;2.20;;
33403;SDS011;19751;40.274;18.268;2023-03-23T13:42:26;9.82;;;2.90;;
33403;SDS011;19751;40.274;18.268;2023-03-23T13:44:56;4.10;;;2.72;;
33403;SDS011;19751;40.274;18.268;2023-03-23T13:47:41;2.95;;;2.60;;
33403;SDS011;19751;40.274;18.268;2023-03-23T13:52:38;2.88;;;2.35;;
33403;SDS011;19751;40.274;18.268;2023-03-23T14:03:00;8.55;;;3.90;;
33403;SDS011;19751;40.274;18.268;2023-03-23T14:13:20;3.67;;;2.30;;
33403;SDS011;19751;40.274;18.268;2023-03-23T14:16:05;2.67;;;2.28;;
33403;SDS011;19751;40.274;18.268;2023-03-23T14:18:42;3.60;;;3.30;;
33403;SDS011;19751;40.274;18.268;2023-03-23T14:21:30;3.85;;;2.92;;
33403;SDS011;19751;40.274;18.268;2023-03-23T14:24:06;2.67;;;2.22;;
33403;SDS011;19751;40.274;18.268;2023-03-23T14:26:40;2.88;;;2.45;;
33403;SDS011;19751;40.274;18.268;2023-03-23T14:29:09;5.97;;;2.65;;
33403;SDS011;19751;40.274;18.268;2023-03-23T14:31:39;2.63;;;2.42;;
33403;SDS011;19751;40.274;18.268;2023-03-23T14:34:12;3.75;;;3.08;;
33403;SDS011;19751;40.274;18.268;2023-03-23T14:36:40;2.65;;;2.45;;
33403;SDS011;19751;40.274;18.268;2023-03-23T14:39:17;4.40;;;2.90;;
33403;SDS011;19751;40.274;18.268;2023-03-23T14:41:44;6.47;;;3.30;;
33403;SDS011;19751;40.274;18.268;2023-03-23T14:44:12;4.05;;;2.90;;
33403;SDS011;19751;40.274;18.268;2023-03-23T14:46:41;3.55;;;2.70;;
33403;SDS011;19751;40.274;18.268;2023-03-23T14:49:13;3.10;;;2.75;;
33403;SDS011;19751;40.274;18.268;2023-03-23T14:51:53;4.18;;;2.30;;
33403;SDS011;19751;40.274;18.268;2023-03-23T14:54:25;3.10;;;2.38;;
33403;SDS011;19751;40.274;18.268;2023-03-23T14:56:54;2.57;;;2.30;;
33403;SDS011;19751;40.274;18.268;2023-03-23T14:59:23;3.70;;;2.30;;
33403;SDS011;19751;40.274;18.268;2023-03-23T15:01:49;4.57;;;2.70;;
33403;SDS011;19751;40.274;18.268;2023-03-23T15:04:20;3.97;;;2.28;;
33403;SDS011;19751;40.274;18.268;2023-03-23T15:06:50;3.88;;;2.72;;
33403;SDS011;19751;40.274;18.268;2023-03-23T15:09:21;5.25;;;2.38;;
33403;SDS011;19751;40.274;18.268;2023-03-23T15:12:03;6.72;;;2.33;;
33403;SDS011;19751;40.274;18.268;2023-03-23T15:14:37;4.82;;;2.22;;
33403;SDS011;19751;40.274;18.268;2023-03-23T15:17:17;2.85;;;2.25;;
33403;SDS011;19751;40.274;18.268;2023-03-23T15:19:44;3.20;;;2.40;;
33403;SDS011;19751;40.274;18.268;2023-03-23T15:25:09;2.73;;;2.53;;
33403;SDS011;19751;40.274;18.268;2023-03-23T15:27:41;3.88;;;2.35;;
33403;SDS011;19751;40.274;18.268;2023-03-23T15:30:13;4.05;;;2.35;;
33403;SDS011;19751;40.274;18.268;2023-03-23T15:32:42;5.15;;;2.10;;
33403;SDS011;19751;40.274;18.268;2023-03-23T15:35:14;4.78;;;2.78;;
33403;SDS011;19751;40.274;18.268;2023-03-23T15:37:43;2.83;;;2.60;;
33403;SDS011;19751;40.274;18.268;2023-03-23T15:40:17;2.72;;;2.50;;
33403;SDS011;19751;40.274;18.268;2023-03-23T15:42:47;2.92;;;1.98;;
33403;SDS011;19751;40.274;18.268;2023-03-23T15:52:41;3.17;;;2.45;;
33403;SDS011;19751;40.274;18.268;2023-03-23T15:57:48;3.55;;;2.15;;
33403;SDS011;19751;40.274;18.268;2023-03-23T16:00:15;3.28;;;1.73;;
33403;SDS011;19751;40.274;18.268;2023-03-23T16:02:42;2.95;;;1.98;;
33403;SDS011;19751;40.274;18.268;2023-03-23T16:05:13;4.00;;;2.00;;
33403;SDS011;19751;40.274;18.268;2023-03-23T16:07:38;5.68;;;3.50;;
33403;SDS011;19751;40.274;18.268;2023-03-23T16:10:04;3.03;;;2.47;;
33403;SDS011;19751;40.274;18.268;2023-03-23T16:12:31;3.88;;;2.10;;
33403;SDS011;19751;40.274;18.268;2023-03-23T16:14:57;2.20;;;2.00;;
33403;SDS011;19751;40.274;18.268;2023-03-23T16:17:23;3.03;;;2.55;;
33403;SDS011;19751;40.274;18.268;2023-03-23T16:19:50;4.45;;;2.10;;
33403;SDS011;19751;40.274;18.268;2023-03-23T16:22:15;3.08;;;2.13;;
33403;SDS011;19751;40.274;18.268;2023-03-23T16:24:41;3.28;;;2.50;;
33403;SDS011;19751;40.274;18.268;2023-03-23T16:27:09;5.90;;;2.63;;
33403;SDS011;19751;40.274;18.268;2023-03-23T16:29:35;3.72;;;2.78;;
33403;SDS011;19751;40.274;18.268;2023-03-23T16:32:01;8.45;;;5.15;;
33403;SDS011;19751;40.274;18.268;2023-03-23T16:34:26;6.38;;;4.45;;
33403;SDS011;19751;40.274;18.268;2023-03-23T16:36:54;5.68;;;4.13;;
33403;SDS011;19751;40.274;18.268;2023-03-23T16:39:20;4.97;;;4.57;;
33403;SDS011;19751;40.274;18.268;2023-03-23T16:41:47;10.10;;;5.43;;
33403;SDS011;19751;40.274;18.268;2023-03-23T16:44:12;4.30;;;3.88;;
33403;SDS011;19751;40.274;18.268;2023-03-23T16:46:39;5.28;;;4.32;;
33403;SDS011;19751;40.274;18.268;2023-03-23T16:49:04;5.28;;;3.22;;
33403;SDS011;19751;40.274;18.268;2023-03-23T16:51:30;2.67;;;2.47;;
33403;SDS011;19751;40.274;18.268;2023-03-23T16:53:55;3.20;;;2.50;;
33403;SDS011;19751;40.274;18.268;2023-03-23T16:56:21;3.10;;;2.35;;
33403;SDS011;19751;40.274;18.268;2023-03-23T16:58:46;4.57;;;3.20;;
33403;SDS011;19751;40.274;18.268;2023-03-23T17:01:13;5.43;;;3.60;;